Terminal Aerodrome Forecast
Issued by NWS Indianapolis, IN

Home | Current Version | Previous Version | Text Only | Print | Product List | Glossary On
Versions: 1 2 3 4 5 6 7 8 9 10 11 12 13 14 15 16 17 18 19 20 21 22 23 24 25
818
FTUS43 KIND 252320
TAFIND
TAF
KIND 252320Z 2600/2706 28010G20KT P6SM BKN050
     FM260200 28008KT P6SM SCT080
     FM260900 VRB04KT P6SM FEW250
     FM261600 19008KT P6SM SCT200
     FM261800 20011G20KT P6SM SCT200
     FM262300 21008KT P6SM BKN150=

USA.gov is the U.S. government's official web portal to all federal, state and local government web resources and services.